createdAt,value
2022-08-10T00:00:40.757Z,54.74
2022-08-10T00:05:43.562Z,55.13
2022-08-10T00:10:55.471Z,55.28
2022-08-10T00:15:57.041Z,55.61
2022-08-10T00:20:58.600Z,55.91
2022-08-10T00:26:00.633Z,56.09
2022-08-10T00:31:02.416Z,56.17
2022-08-10T00:36:04.035Z,56.84
2022-08-10T00:41:05.636Z,56.52
2022-08-10T00:46:07.264Z,57.65
2022-08-10T00:51:08.977Z,57.40
2022-08-10T00:57:16.913Z,57.90
2022-08-10T01:02:08.857Z,57.72
2022-08-10T01:07:09.852Z,58.47
2022-08-10T01:12:43.909Z,58.20
2022-08-10T01:18:04.560Z,59.00
2022-08-10T01:23:24.370Z,59.49
2022-08-10T01:28:34.840Z,59.85
2022-08-10T01:34:01.976Z,59.86
2022-08-10T01:39:05.847Z,60.11
2022-08-10T01:44:12.355Z,60.23
2022-08-10T01:49:17.757Z,60.92
2022-08-10T01:54:22.230Z,60.80
2022-08-10T01:59:26.675Z,60.82
2022-08-10T02:04:31.286Z,61.36
2022-08-10T02:09:40.355Z,61.59
2022-08-10T02:14:46.957Z,61.77
2022-08-10T02:19:51.396Z,62.42
2022-08-10T02:24:54.618Z,62.77
2022-08-10T02:29:57.815Z,62.80
2022-08-10T02:35:02.137Z,63.42
2022-08-10T02:40:05.303Z,63.56
2022-08-10T02:45:29.055Z,63.88
2022-08-10T02:50:36.528Z,64.33
2022-08-10T02:55:45.421Z,64.71
2022-08-10T03:00:53.389Z,65.56
2022-08-10T03:06:03.552Z,65.60
2022-08-10T03:11:07.694Z,66.24
2022-08-10T03:16:10.510Z,66.45
2022-08-10T03:21:13.492Z,66.91
2022-08-10T03:26:20.296Z,66.67
2022-08-10T03:31:22.462Z,67.24
2022-08-10T03:36:43.026Z,67.50
2022-08-10T03:41:53.575Z,68.02
2022-08-10T03:47:01.154Z,69.08
2022-08-10T03:52:03.130Z,68.90
2022-08-10T03:57:05.129Z,68.66
2022-08-10T04:02:44.993Z,68.61
2022-08-10T04:07:29.320Z,69.21
2022-08-10T04:12:30.844Z,70.04
2022-08-10T04:17:56.728Z,69.61
2022-08-10T04:22:57.418Z,68.90
2022-08-10T04:28:04.217Z,69.37
2022-08-10T04:33:08.414Z,69.18
2022-08-10T04:38:10.897Z,70.06
2022-08-10T04:43:13.795Z,70.30
2022-08-10T04:48:41.169Z,70.62
2022-08-10T04:54:03.004Z,70.99
2022-08-10T04:59:00.744Z,70.95
2022-08-10T05:04:34.838Z,71.19
2022-08-10T05:09:24.397Z,71.28
2022-08-10T05:14:26.600Z,71.58
2022-08-10T05:20:04.364Z,71.32
2022-08-10T05:24:50.199Z,71.67
2022-08-10T05:30:02.573Z,70.72
2022-08-10T05:35:05.731Z,70.77
2022-08-10T05:40:08.599Z,70.37
2022-08-10T05:45:20.173Z,70.10
2022-08-10T05:50:26.310Z,69.55
2022-08-10T05:55:30.772Z,69.28
2022-08-10T06:00:41.690Z,69.44
2022-08-10T06:05:46.364Z,68.75
2022-08-10T06:12:24.354Z,68.24
2022-08-10T06:16:12.449Z,67.39
2022-08-10T06:21:14.366Z,67.37
2022-08-10T06:26:21.020Z,66.52
2022-08-10T06:31:25.326Z,66.01
2022-08-10T06:36:34.029Z,65.47
2022-08-10T06:42:14.260Z,64.29
2022-08-10T06:47:05.934Z,63.80
2022-08-10T06:52:17.707Z,63.01
2022-08-10T06:57:25.099Z,62.28
2022-08-10T07:02:36.744Z,62.65
2022-08-10T07:07:40.853Z,61.10
2022-08-10T07:12:44.368Z,59.90
2022-08-10T07:17:47.474Z,60.03
2022-08-10T07:23:05.937Z,59.94
2022-08-10T07:28:14.196Z,57.84
2022-08-10T07:33:19.235Z,57.66
2022-08-10T07:38:25.290Z,57.20
2022-08-10T07:43:31.987Z,54.65
2022-08-10T07:48:39.440Z,53.55
2022-08-10T07:53:46.763Z,52.62
2022-08-10T07:58:54.007Z,51.26
2022-08-10T08:04:05.506Z,51.21
2022-08-10T08:09:13.176Z,51.34
2022-08-10T08:14:16.621Z,49.64
2022-08-10T08:19:28.037Z,49.64
2022-08-10T08:24:37.268Z,48.26
2022-08-10T08:29:41.914Z,48.25
2022-08-10T08:34:45.068Z,48.57
2022-08-10T08:39:47.603Z,47.25
2022-08-10T08:45:15.638Z,46.29
2022-08-10T08:50:32.411Z,46.75
2022-08-10T08:56:06.280Z,44.53
2022-08-10T09:01:46.469Z,45.12
2022-08-10T09:08:02.022Z,43.27
2022-08-10T09:13:09.757Z,44.27
2022-08-10T09:18:21.332Z,42.36
2022-08-10T09:24:04.372Z,42.07
2022-08-10T09:29:11.600Z,41.54
2022-08-10T09:36:24.601Z,41.45
2022-08-10T09:40:55.915Z,40.38
2022-08-10T09:45:24.003Z,39.71
2022-08-10T09:51:05.404Z,38.89
2022-08-10T09:56:32.201Z,39.32
2022-08-10T10:02:02.592Z,39.04
2022-08-10T10:07:08.312Z,37.96
2022-08-10T10:12:34.579Z,38.20
2022-08-10T10:18:14.571Z,37.76
2022-08-10T10:23:24.784Z,37.34
2022-08-10T10:29:37.590Z,36.35
2022-08-10T10:34:35.672Z,35.23
2022-08-10T10:39:43.477Z,35.44
2022-08-10T10:45:15.772Z,35.28
2022-08-10T10:50:49.505Z,34.71
2022-08-10T10:56:15.283Z,34.93
2022-08-10T11:01:38.324Z,34.78
2022-08-10T11:07:05.104Z,35.49
2022-08-10T11:12:13.348Z,34.29
2022-08-10T11:17:27.157Z,34.27
2022-08-10T11:22:36.841Z,34.29
2022-08-10T11:27:49.516Z,33.63
2022-08-10T11:33:30.808Z,33.94
2022-08-10T11:39:13.537Z,33.14
2022-08-10T11:44:48.520Z,32.78
2022-08-10T11:50:07.177Z,33.48
2022-08-10T11:55:21.891Z,34.61
2022-08-10T12:00:29.571Z,33.27
2022-08-10T12:05:54.774Z,33.03
2022-08-10T12:10:59.015Z,32.76
2022-08-10T12:16:19.908Z,32.82
2022-08-10T12:21:23.149Z,33.35
2022-08-10T12:26:32.902Z,33.32
2022-08-10T12:31:43.796Z,32.14
2022-08-10T12:36:50.928Z,32.77
2022-08-10T12:42:34.897Z,32.56
2022-08-10T12:47:59.863Z,32.25
2022-08-10T12:53:11.066Z,31.98
2022-08-10T12:58:59.221Z,32.17
2022-08-10T13:04:20.630Z,31.36
2022-08-10T13:09:08.921Z,31.11
2022-08-10T13:14:22.012Z,31.12
2022-08-10T13:19:28.793Z,31.16
2022-08-10T13:24:55.528Z,31.11
2022-08-10T13:30:06.925Z,30.55
2022-08-10T13:35:17.539Z,30.88
2022-08-10T13:40:20.645Z,30.68
2022-08-10T13:45:25.746Z,30.82
2022-08-10T13:50:34.497Z,30.82
2022-08-10T13:55:54.538Z,30.73
2022-08-10T14:01:00.384Z,30.52
2022-08-10T14:06:04.361Z,30.55
2022-08-10T14:11:16.247Z,30.19
2022-08-10T14:16:19.387Z,30.47
2022-08-10T14:21:21.939Z,30.80
2022-08-10T14:26:28.413Z,30.67
2022-08-10T14:31:33.507Z,30.29
2022-08-10T14:36:45.311Z,30.56
2022-08-10T14:42:04.500Z,29.88
2022-08-10T14:47:53.207Z,30.38
2022-08-10T14:52:39.667Z,30.45
2022-08-10T14:58:16.441Z,29.81
2022-08-10T15:03:11.128Z,30.31
2022-08-10T15:08:36.937Z,29.12
2022-08-10T15:13:44.924Z,29.43
2022-08-10T15:20:03.511Z,29.53
2022-08-10T15:24:52.154Z,29.46
2022-08-10T15:29:57.008Z,29.45
2022-08-10T15:35:20.637Z,28.80
2022-08-10T15:40:37.426Z,29.37
2022-08-10T15:45:58.424Z,29.37
2022-08-10T15:51:06.352Z,29.30
2022-08-10T15:56:15.004Z,29.27
2022-08-10T16:02:13.899Z,28.68
2022-08-10T16:06:49.655Z,29.62
2022-08-10T16:11:59.874Z,29.09
2022-08-10T16:17:03.288Z,29.69
2022-08-10T16:22:35.984Z,29.43
2022-08-10T16:27:32.231Z,29.53
2022-08-10T16:32:35.738Z,29.80
2022-08-10T16:37:58.227Z,29.72
2022-08-10T16:43:03.301Z,29.62
2022-08-10T16:48:06.479Z,30.13
2022-08-10T16:53:13.709Z,29.67
2022-08-10T16:58:19.137Z,30.21
2022-08-10T17:04:07.414Z,30.31
2022-08-10T17:08:53.219Z,30.16
2022-08-10T17:14:03.052Z,30.30
2022-08-10T17:19:12.672Z,29.98
2022-08-10T17:24:17.144Z,30.29
2022-08-10T17:29:58.446Z,30.39
2022-08-10T17:34:46.308Z,30.71
2022-08-10T17:39:51.914Z,31.07
2022-08-10T17:44:55.302Z,31.16
2022-08-10T17:49:58.719Z,31.00
2022-08-10T17:55:05.556Z,31.44
2022-08-10T18:00:13.932Z,31.24
2022-08-10T18:05:16.184Z,31.20
2022-08-10T18:10:20.907Z,31.18
2022-08-10T18:15:26.548Z,31.25
2022-08-10T18:20:34.764Z,31.72
2022-08-10T18:25:44.033Z,31.85
2022-08-10T18:30:49.653Z,31.49
2022-08-10T18:35:52.432Z,31.68
2022-08-10T18:40:59.419Z,31.98
2022-08-10T18:46:01.604Z,32.30
2022-08-10T18:51:06.202Z,32.57
2022-08-10T18:56:38.315Z,32.49
2022-08-10T19:01:39.849Z,32.61
2022-08-10T19:07:04.306Z,33.33
2022-08-10T19:12:40.583Z,33.26
2022-08-10T19:18:05.615Z,33.35
2022-08-10T19:23:26.440Z,33.83
2022-08-10T19:28:41.221Z,33.84
2022-08-10T19:34:11.622Z,33.95
2022-08-10T19:39:22.286Z,33.99
2022-08-10T19:44:42.733Z,34.50
2022-08-10T19:49:59.175Z,35.03
2022-08-10T19:55:25.154Z,35.11
2022-08-10T20:00:58.745Z,35.56
2022-08-10T20:06:20.914Z,35.52
2022-08-10T20:11:44.835Z,35.75
2022-08-10T20:16:48.533Z,36.26
2022-08-10T20:22:10.996Z,36.58
2022-08-10T20:27:43.549Z,36.72
2022-08-10T20:33:08.904Z,37.03
2022-08-10T20:38:17.210Z,37.18
2022-08-10T20:43:46.636Z,37.88
2022-08-10T20:49:04.245Z,37.95
2022-08-10T20:54:08.799Z,38.50
2022-08-10T21:00:04.257Z,38.73
2022-08-10T21:05:18.274Z,38.66
2022-08-10T21:10:49.220Z,39.09
2022-08-10T21:16:09.231Z,39.53
2022-08-10T21:21:41.935Z,39.96
2022-08-10T21:27:02.485Z,40.24
2022-08-10T21:32:24.410Z,40.33
2022-08-10T21:37:39.951Z,40.75
2022-08-10T21:43:50.120Z,40.78
2022-08-10T21:49:24.166Z,40.90
2022-08-10T21:54:58.433Z,41.26
2022-08-10T22:00:29.559Z,41.47
2022-08-10T22:05:53.986Z,41.60
2022-08-10T22:11:17.079Z,41.71
2022-08-10T22:16:54.201Z,42.23
2022-08-10T22:22:19.915Z,42.42
2022-08-10T22:27:52.853Z,42.80
2022-08-10T22:33:47.156Z,42.85
2022-08-10T22:40:11.821Z,42.99
2022-08-10T22:45:22.052Z,43.58
2022-08-10T22:50:28.341Z,43.50
2022-08-10T22:55:56.801Z,43.63
2022-08-10T23:01:10.028Z,43.73
2022-08-10T23:06:14.783Z,44.28
2022-08-10T23:11:28.713Z,44.78
2022-08-10T23:16:54.179Z,44.74
2022-08-10T23:22:07.275Z,45.68
2022-08-10T23:27:38.425Z,45.11
2022-08-10T23:32:40.553Z,45.40
2022-08-10T23:37:43.761Z,46.39
2022-08-10T23:42:53.780Z,45.91
2022-08-10T23:48:00.237Z,46.57
2022-08-10T23:53:13.475Z,46.74
2022-08-10T23:58:33.654Z,46.90
